sensor_id;sensor_type;location;lat;lon;timestamp;P1;durP1;ratioP1;P2;durP2;ratioP2
13609;SDS011;6876;50.788;4.940;2022-11-15T00:01:26;95.53;;;89.63;;
13609;SDS011;6876;50.788;4.940;2022-11-15T00:04:14;90.90;;;84.97;;
13609;SDS011;6876;50.788;4.940;2022-11-15T00:07:01;96.27;;;90.43;;
13609;SDS011;6876;50.788;4.940;2022-11-15T00:09:48;95.83;;;89.70;;
13609;SDS011;6876;50.788;4.940;2022-11-15T00:12:35;108.60;;;101.57;;
13609;SDS011;6876;50.788;4.940;2022-11-15T00:15:24;96.17;;;90.37;;
13609;SDS011;6876;50.788;4.940;2022-11-15T00:18:11;97.47;;;91.10;;
13609;SDS011;6876;50.788;4.940;2022-11-15T00:21:03;87.73;;;82.00;;
13609;SDS011;6876;50.788;4.940;2022-11-15T00:23:51;92.40;;;86.10;;
13609;SDS011;6876;50.788;4.940;2022-11-15T00:26:39;91.93;;;86.13;;
13609;SDS011;6876;50.788;4.940;2022-11-15T00:29:26;84.40;;;78.93;;
13609;SDS011;6876;50.788;4.940;2022-11-15T00:32:14;84.73;;;79.23;;
13609;SDS011;6876;50.788;4.940;2022-11-15T00:35:02;82.53;;;77.03;;
13609;SDS011;6876;50.788;4.940;2022-11-15T00:37:49;83.83;;;78.33;;
13609;SDS011;6876;50.788;4.940;2022-11-15T00:40:39;84.43;;;78.60;;
13609;SDS011;6876;50.788;4.940;2022-11-15T00:43:26;83.97;;;78.40;;
13609;SDS011;6876;50.788;4.940;2022-11-15T00:46:13;85.17;;;79.53;;
13609;SDS011;6876;50.788;4.940;2022-11-15T00:49:02;88.70;;;82.73;;
13609;SDS011;6876;50.788;4.940;2022-11-15T00:51:49;91.97;;;86.00;;
13609;SDS011;6876;50.788;4.940;2022-11-15T00:54:36;85.47;;;79.63;;
13609;SDS011;6876;50.788;4.940;2022-11-15T00:57:23;77.83;;;72.77;;
13609;SDS011;6876;50.788;4.940;2022-11-15T01:00:11;78.83;;;73.70;;
13609;SDS011;6876;50.788;4.940;2022-11-15T01:02:59;84.33;;;78.90;;
13609;SDS011;6876;50.788;4.940;2022-11-15T01:05:48;82.57;;;77.10;;
13609;SDS011;6876;50.788;4.940;2022-11-15T01:08:35;85.20;;;79.77;;
13609;SDS011;6876;50.788;4.940;2022-11-15T01:11:22;87.67;;;81.97;;
13609;SDS011;6876;50.788;4.940;2022-11-15T01:14:09;87.03;;;81.10;;
13609;SDS011;6876;50.788;4.940;2022-11-15T01:16:57;90.93;;;84.70;;
13609;SDS011;6876;50.788;4.940;2022-11-15T01:19:44;88.33;;;82.20;;
13609;SDS011;6876;50.788;4.940;2022-11-15T01:22:33;90.97;;;84.67;;
13609;SDS011;6876;50.788;4.940;2022-11-15T01:25:20;95.20;;;88.37;;
13609;SDS011;6876;50.788;4.940;2022-11-15T01:28:07;108.83;;;101.37;;
13609;SDS011;6876;50.788;4.940;2022-11-15T01:30:57;93.83;;;87.03;;
13609;SDS011;6876;50.788;4.940;2022-11-15T01:33:44;95.83;;;89.00;;
13609;SDS011;6876;50.788;4.940;2022-11-15T01:36:32;93.23;;;86.53;;
13609;SDS011;6876;50.788;4.940;2022-11-15T01:39:21;91.80;;;85.47;;
13609;SDS011;6876;50.788;4.940;2022-11-15T01:42:09;88.67;;;82.30;;
13609;SDS011;6876;50.788;4.940;2022-11-15T01:44:59;94.57;;;87.63;;
13609;SDS011;6876;50.788;4.940;2022-11-15T01:47:47;87.70;;;81.47;;
13609;SDS011;6876;50.788;4.940;2022-11-15T01:50:37;92.70;;;86.33;;
13609;SDS011;6876;50.788;4.940;2022-11-15T01:53:24;95.97;;;89.00;;
13609;SDS011;6876;50.788;4.940;2022-11-15T01:56:15;98.20;;;91.10;;
13609;SDS011;6876;50.788;4.940;2022-11-15T01:59:06;82.43;;;76.73;;
13609;SDS011;6876;50.788;4.940;2022-11-15T02:01:54;98.20;;;91.17;;
13609;SDS011;6876;50.788;4.940;2022-11-15T02:04:42;101.97;;;95.30;;
13609;SDS011;6876;50.788;4.940;2022-11-15T02:07:31;104.27;;;96.83;;
13609;SDS011;6876;50.788;4.940;2022-11-15T02:10:21;106.63;;;99.53;;
13609;SDS011;6876;50.788;4.940;2022-11-15T02:13:11;104.23;;;97.43;;
13609;SDS011;6876;50.788;4.940;2022-11-15T02:16:01;109.40;;;102.53;;
13609;SDS011;6876;50.788;4.940;2022-11-15T02:18:55;102.50;;;95.90;;
13609;SDS011;6876;50.788;4.940;2022-11-15T02:21:49;99.47;;;92.83;;
13609;SDS011;6876;50.788;4.940;2022-11-15T02:24:59;92.97;;;86.73;;
13609;SDS011;6876;50.788;4.940;2022-11-15T02:31:18;106.07;;;99.50;;
13609;SDS011;6876;50.788;4.940;2022-11-15T02:34:15;107.80;;;101.13;;
13609;SDS011;6876;50.788;4.940;2022-11-15T02:37:11;115.30;;;108.03;;
13609;SDS011;6876;50.788;4.940;2022-11-15T02:40:06;123.07;;;115.57;;
13609;SDS011;6876;50.788;4.940;2022-11-15T02:43:00;121.30;;;113.80;;
13609;SDS011;6876;50.788;4.940;2022-11-15T02:46:11;123.37;;;115.83;;
13609;SDS011;6876;50.788;4.940;2022-11-15T02:49:06;153.47;;;144.23;;
13609;SDS011;6876;50.788;4.940;2022-11-15T02:51:54;192.13;;;181.00;;
13609;SDS011;6876;50.788;4.940;2022-11-15T02:54:42;177.23;;;167.17;;
13609;SDS011;6876;50.788;4.940;2022-11-15T02:57:41;179.97;;;169.97;;
13609;SDS011;6876;50.788;4.940;2022-11-15T03:00:38;182.17;;;171.43;;
13609;SDS011;6876;50.788;4.940;2022-11-15T03:03:38;196.00;;;184.33;;
13609;SDS011;6876;50.788;4.940;2022-11-15T03:06:37;169.80;;;160.27;;
13609;SDS011;6876;50.788;4.940;2022-11-15T03:09:30;192.10;;;181.17;;
13609;SDS011;6876;50.788;4.940;2022-11-15T03:12:22;138.33;;;130.13;;
13609;SDS011;6876;50.788;4.940;2022-11-15T03:15:16;155.43;;;145.93;;
13609;SDS011;6876;50.788;4.940;2022-11-15T03:18:10;140.93;;;132.90;;
13609;SDS011;6876;50.788;4.940;2022-11-15T03:21:03;120.20;;;112.60;;
13609;SDS011;6876;50.788;4.940;2022-11-15T03:23:54;129.53;;;121.60;;
13609;SDS011;6876;50.788;4.940;2022-11-15T03:26:44;149.60;;;140.30;;
13609;SDS011;6876;50.788;4.940;2022-11-15T03:29:35;98.17;;;91.93;;
13609;SDS011;6876;50.788;4.940;2022-11-15T03:32:29;108.97;;;101.97;;
13609;SDS011;6876;50.788;4.940;2022-11-15T03:35:19;87.20;;;81.43;;
13609;SDS011;6876;50.788;4.940;2022-11-15T03:38:10;85.03;;;79.50;;
13609;SDS011;6876;50.788;4.940;2022-11-15T03:41:05;86.23;;;80.17;;
13609;SDS011;6876;50.788;4.940;2022-11-15T03:43:59;82.43;;;76.77;;
13609;SDS011;6876;50.788;4.940;2022-11-15T03:46:57;85.23;;;79.57;;
13609;SDS011;6876;50.788;4.940;2022-11-15T03:49:50;83.90;;;78.23;;
13609;SDS011;6876;50.788;4.940;2022-11-15T03:52:39;77.43;;;72.20;;
13609;SDS011;6876;50.788;4.940;2022-11-15T03:55:27;82.03;;;76.30;;
13609;SDS011;6876;50.788;4.940;2022-11-15T03:58:16;81.80;;;76.20;;
13609;SDS011;6876;50.788;4.940;2022-11-15T04:01:03;75.53;;;70.23;;
13609;SDS011;6876;50.788;4.940;2022-11-15T04:03:50;90.83;;;84.80;;
13609;SDS011;6876;50.788;4.940;2022-11-15T04:06:38;111.23;;;104.33;;
13609;SDS011;6876;50.788;4.940;2022-11-15T04:09:25;105.87;;;100.07;;
13609;SDS011;6876;50.788;4.940;2022-11-15T04:12:12;113.03;;;106.63;;
13609;SDS011;6876;50.788;4.940;2022-11-15T04:15:17;127.17;;;120.03;;
13609;SDS011;6876;50.788;4.940;2022-11-15T04:18:06;122.40;;;115.77;;
13609;SDS011;6876;50.788;4.940;2022-11-15T04:20:53;76.00;;;71.53;;
13609;SDS011;6876;50.788;4.940;2022-11-15T04:23:58;78.93;;;74.77;;
13609;SDS011;6876;50.788;4.940;2022-11-15T04:27:01;85.40;;;80.60;;
13609;SDS011;6876;50.788;4.940;2022-11-15T04:29:48;82.87;;;78.37;;
13609;SDS011;6876;50.788;4.940;2022-11-15T04:32:36;92.27;;;87.03;;
13609;SDS011;6876;50.788;4.940;2022-11-15T04:35:24;118.23;;;112.33;;
13609;SDS011;6876;50.788;4.940;2022-11-15T04:38:11;183.13;;;174.20;;
13609;SDS011;6876;50.788;4.940;2022-11-15T04:40:58;190.17;;;180.83;;
13609;SDS011;6876;50.788;4.940;2022-11-15T04:43:45;191.47;;;181.97;;
13609;SDS011;6876;50.788;4.940;2022-11-15T04:46:33;164.27;;;156.17;;
13609;SDS011;6876;50.788;4.940;2022-11-15T04:49:21;164.10;;;155.90;;
13609;SDS011;6876;50.788;4.940;2022-11-15T04:52:08;175.90;;;167.03;;
13609;SDS011;6876;50.788;4.940;2022-11-15T04:54:56;151.23;;;143.43;;
13609;SDS011;6876;50.788;4.940;2022-11-15T04:57:43;153.23;;;145.03;;
13609;SDS011;6876;50.788;4.940;2022-11-15T05:00:30;126.80;;;119.77;;
13609;SDS011;6876;50.788;4.940;2022-11-15T05:03:17;120.37;;;113.37;;
13609;SDS011;6876;50.788;4.940;2022-11-15T05:06:23;132.20;;;124.60;;
13609;SDS011;6876;50.788;4.940;2022-11-15T05:09:10;137.53;;;129.67;;
13609;SDS011;6876;50.788;4.940;2022-11-15T05:11:58;140.47;;;132.23;;
13609;SDS011;6876;50.788;4.940;2022-11-15T05:14:45;149.67;;;141.63;;
13609;SDS011;6876;50.788;4.940;2022-11-15T05:17:32;140.97;;;133.10;;
13609;SDS011;6876;50.788;4.940;2022-11-15T05:20:19;133.40;;;125.90;;
13609;SDS011;6876;50.788;4.940;2022-11-15T05:23:08;144.03;;;136.23;;
13609;SDS011;6876;50.788;4.940;2022-11-15T05:25:58;154.40;;;145.70;;
13609;SDS011;6876;50.788;4.940;2022-11-15T05:28:45;149.40;;;141.07;;
13609;SDS011;6876;50.788;4.940;2022-11-15T05:31:32;139.47;;;131.77;;
13609;SDS011;6876;50.788;4.940;2022-11-15T05:34:19;140.57;;;132.67;;
13609;SDS011;6876;50.788;4.940;2022-11-15T05:37:08;114.97;;;108.43;;
13609;SDS011;6876;50.788;4.940;2022-11-15T05:39:56;122.53;;;115.73;;
13609;SDS011;6876;50.788;4.940;2022-11-15T05:42:44;118.90;;;112.50;;
13609;SDS011;6876;50.788;4.940;2022-11-15T05:45:32;114.07;;;107.33;;
13609;SDS011;6876;50.788;4.940;2022-11-15T05:48:21;115.33;;;108.83;;
13609;SDS011;6876;50.788;4.940;2022-11-15T05:51:08;94.00;;;88.33;;
13609;SDS011;6876;50.788;4.940;2022-11-15T05:53:56;108.27;;;102.27;;
13609;SDS011;6876;50.788;4.940;2022-11-15T05:56:46;98.07;;;92.13;;
13609;SDS011;6876;50.788;4.940;2022-11-15T05:59:33;96.20;;;90.27;;
13609;SDS011;6876;50.788;4.940;2022-11-15T06:02:22;98.30;;;92.40;;
13609;SDS011;6876;50.788;4.940;2022-11-15T06:05:09;91.67;;;85.80;;
13609;SDS011;6876;50.788;4.940;2022-11-15T06:07:57;91.83;;;86.10;;
13609;SDS011;6876;50.788;4.940;2022-11-15T06:10:44;100.30;;;94.40;;
13609;SDS011;6876;50.788;4.940;2022-11-15T06:13:33;111.00;;;103.97;;
13609;SDS011;6876;50.788;4.940;2022-11-15T06:16:20;99.43;;;93.73;;
13609;SDS011;6876;50.788;4.940;2022-11-15T06:19:07;93.23;;;87.67;;
13609;SDS011;6876;50.788;4.940;2022-11-15T06:21:54;112.07;;;105.87;;
13609;SDS011;6876;50.788;4.940;2022-11-15T06:24:42;92.57;;;87.03;;
13609;SDS011;6876;50.788;4.940;2022-11-15T06:27:29;89.23;;;83.67;;
13609;SDS011;6876;50.788;4.940;2022-11-15T06:30:17;78.10;;;73.40;;
13609;SDS011;6876;50.788;4.940;2022-11-15T06:33:05;84.53;;;79.53;;
13609;SDS011;6876;50.788;4.940;2022-11-15T06:35:55;81.20;;;76.07;;
13609;SDS011;6876;50.788;4.940;2022-11-15T06:38:42;80.47;;;75.77;;
13609;SDS011;6876;50.788;4.940;2022-11-15T06:41:29;81.97;;;77.20;;
13609;SDS011;6876;50.788;4.940;2022-11-15T06:44:17;78.67;;;73.97;;
13609;SDS011;6876;50.788;4.940;2022-11-15T06:47:07;77.20;;;72.63;;
13609;SDS011;6876;50.788;4.940;2022-11-15T06:49:54;82.10;;;77.10;;
13609;SDS011;6876;50.788;4.940;2022-11-15T06:52:42;83.67;;;78.47;;
13609;SDS011;6876;50.788;4.940;2022-11-15T06:55:29;88.83;;;83.47;;
13609;SDS011;6876;50.788;4.940;2022-11-15T06:58:16;91.23;;;86.10;;
13609;SDS011;6876;50.788;4.940;2022-11-15T07:01:04;95.43;;;90.17;;
13609;SDS011;6876;50.788;4.940;2022-11-15T07:03:55;86.50;;;81.70;;
13609;SDS011;6876;50.788;4.940;2022-11-15T07:06:42;80.33;;;75.60;;
13609;SDS011;6876;50.788;4.940;2022-11-15T07:09:29;80.77;;;76.30;;
13609;SDS011;6876;50.788;4.940;2022-11-15T07:12:16;73.67;;;69.57;;
13609;SDS011;6876;50.788;4.940;2022-11-15T07:15:04;73.83;;;69.50;;
13609;SDS011;6876;50.788;4.940;2022-11-15T07:17:52;83.70;;;78.80;;
13609;SDS011;6876;50.788;4.940;2022-11-15T07:20:40;72.33;;;67.97;;
13609;SDS011;6876;50.788;4.940;2022-11-15T07:23:28;76.70;;;72.47;;
13609;SDS011;6876;50.788;4.940;2022-11-15T07:26:15;78.97;;;74.20;;
13609;SDS011;6876;50.788;4.940;2022-11-15T07:29:02;85.80;;;81.00;;
13609;SDS011;6876;50.788;4.940;2022-11-15T07:31:49;91.40;;;86.50;;
13609;SDS011;6876;50.788;4.940;2022-11-15T07:34:37;92.77;;;87.77;;
13609;SDS011;6876;50.788;4.940;2022-11-15T07:37:25;93.17;;;88.37;;
13609;SDS011;6876;50.788;4.940;2022-11-15T07:40:12;162.47;;;154.27;;
13609;SDS011;6876;50.788;4.940;2022-11-15T07:43:00;170.40;;;162.03;;
13609;SDS011;6876;50.788;4.940;2022-11-15T07:45:47;195.43;;;186.00;;
13609;SDS011;6876;50.788;4.940;2022-11-15T07:48:35;253.40;;;241.27;;
13609;SDS011;6876;50.788;4.940;2022-11-15T07:51:22;181.03;;;171.83;;
13609;SDS011;6876;50.788;4.940;2022-11-15T07:54:11;275.63;;;262.27;;
13609;SDS011;6876;50.788;4.940;2022-11-15T07:56:58;282.17;;;268.53;;
13609;SDS011;6876;50.788;4.940;2022-11-15T07:59:45;224.03;;;213.30;;
13609;SDS011;6876;50.788;4.940;2022-11-15T08:02:32;152.70;;;144.97;;
13609;SDS011;6876;50.788;4.940;2022-11-15T08:05:20;158.47;;;150.53;;
13609;SDS011;6876;50.788;4.940;2022-11-15T08:08:07;94.97;;;90.23;;
13609;SDS011;6876;50.788;4.940;2022-11-15T08:10:58;68.93;;;65.43;;
13609;SDS011;6876;50.788;4.940;2022-11-15T08:13:45;61.93;;;58.43;;
13609;SDS011;6876;50.788;4.940;2022-11-15T08:16:32;60.53;;;57.00;;
13609;SDS011;6876;50.788;4.940;2022-11-15T08:19:19;56.63;;;53.37;;
13609;SDS011;6876;50.788;4.940;2022-11-15T08:22:07;57.93;;;55.10;;
13609;SDS011;6876;50.788;4.940;2022-11-15T08:24:55;52.60;;;49.70;;
13609;SDS011;6876;50.788;4.940;2022-11-15T08:27:43;59.30;;;56.20;;
13609;SDS011;6876;50.788;4.940;2022-11-15T08:30:34;54.93;;;52.03;;
13609;SDS011;6876;50.788;4.940;2022-11-15T08:33:23;53.53;;;50.23;;
13609;SDS011;6876;50.788;4.940;2022-11-15T08:36:11;54.87;;;51.60;;
13609;SDS011;6876;50.788;4.940;2022-11-15T08:39:00;57.90;;;54.90;;
13609;SDS011;6876;50.788;4.940;2022-11-15T08:41:48;58.17;;;54.70;;
13609;SDS011;6876;50.788;4.940;2022-11-15T08:44:36;61.27;;;57.57;;
13609;SDS011;6876;50.788;4.940;2022-11-15T08:47:24;51.80;;;49.10;;
13609;SDS011;6876;50.788;4.940;2022-11-15T08:50:11;46.67;;;44.27;;
13609;SDS011;6876;50.788;4.940;2022-11-15T08:53:03;45.07;;;42.27;;
13609;SDS011;6876;50.788;4.940;2022-11-15T08:55:52;44.17;;;41.77;;
13609;SDS011;6876;50.788;4.940;2022-11-15T08:58:39;40.27;;;37.87;;
13609;SDS011;6876;50.788;4.940;2022-11-15T09:01:29;39.90;;;37.90;;
13609;SDS011;6876;50.788;4.940;2022-11-15T09:04:16;33.97;;;32.17;;
13609;SDS011;6876;50.788;4.940;2022-11-15T09:07:03;40.20;;;37.70;;
13609;SDS011;6876;50.788;4.940;2022-11-15T09:09:50;38.37;;;36.10;;
13609;SDS011;6876;50.788;4.940;2022-11-15T09:12:37;40.77;;;38.60;;
13609;SDS011;6876;50.788;4.940;2022-11-15T09:15:25;35.67;;;33.70;;
13609;SDS011;6876;50.788;4.940;2022-11-15T09:18:13;34.00;;;32.10;;
13609;SDS011;6876;50.788;4.940;2022-11-15T09:21:01;33.70;;;31.57;;
13609;SDS011;6876;50.788;4.940;2022-11-15T09:23:49;31.70;;;29.93;;
13609;SDS011;6876;50.788;4.940;2022-11-15T09:26:37;33.30;;;31.40;;
13609;SDS011;6876;50.788;4.940;2022-11-15T09:29:25;59.03;;;56.07;;
13609;SDS011;6876;50.788;4.940;2022-11-15T09:32:12;42.50;;;40.00;;
13609;SDS011;6876;50.788;4.940;2022-11-15T09:35:01;32.37;;;30.50;;
13609;SDS011;6876;50.788;4.940;2022-11-15T09:37:48;32.17;;;30.47;;
13609;SDS011;6876;50.788;4.940;2022-11-15T09:40:36;30.73;;;29.10;;
13609;SDS011;6876;50.788;4.940;2022-11-15T09:43:27;29.07;;;27.33;;
13609;SDS011;6876;50.788;4.940;2022-11-15T09:46:20;20.47;;;19.27;;
13609;SDS011;6876;50.788;4.940;2022-11-15T09:49:15;19.23;;;17.90;;
13609;SDS011;6876;50.788;4.940;2022-11-15T09:52:06;24.50;;;23.27;;
13609;SDS011;6876;50.788;4.940;2022-11-15T09:54:55;35.03;;;33.20;;
13609;SDS011;6876;50.788;4.940;2022-11-15T09:57:44;41.07;;;38.67;;
13609;SDS011;6876;50.788;4.940;2022-11-15T10:00:38;29.97;;;28.23;;
13609;SDS011;6876;50.788;4.940;2022-11-15T10:03:30;32.40;;;30.37;;
13609;SDS011;6876;50.788;4.940;2022-11-15T10:06:22;35.23;;;33.30;;
13609;SDS011;6876;50.788;4.940;2022-11-15T10:09:15;33.33;;;31.47;;
13609;SDS011;6876;50.788;4.940;2022-11-15T10:12:06;34.30;;;31.33;;
13609;SDS011;6876;50.788;4.940;2022-11-15T10:14:55;32.80;;;30.77;;
13609;SDS011;6876;50.788;4.940;2022-11-15T10:18:05;35.70;;;33.80;;
13609;SDS011;6876;50.788;4.940;2022-11-15T10:21:02;30.13;;;28.13;;
13609;SDS011;6876;50.788;4.940;2022-11-15T10:23:59;32.10;;;30.30;;
13609;SDS011;6876;50.788;4.940;2022-11-15T10:26:49;32.00;;;30.27;;
13609;SDS011;6876;50.788;4.940;2022-11-15T10:29:40;28.57;;;26.67;;
13609;SDS011;6876;50.788;4.940;2022-11-15T10:32:29;27.77;;;26.03;;
13609;SDS011;6876;50.788;4.940;2022-11-15T10:35:22;27.37;;;25.87;;
13609;SDS011;6876;50.788;4.940;2022-11-15T10:38:11;28.77;;;27.23;;
13609;SDS011;6876;50.788;4.940;2022-11-15T10:41:06;28.13;;;26.33;;
13609;SDS011;6876;50.788;4.940;2022-11-15T10:44:03;45.30;;;42.90;;
13609;SDS011;6876;50.788;4.940;2022-11-15T10:47:04;25.70;;;24.30;;
13609;SDS011;6876;50.788;4.940;2022-11-15T10:50:07;26.37;;;24.77;;
13609;SDS011;6876;50.788;4.940;2022-11-15T10:53:16;24.03;;;22.90;;
13609;SDS011;6876;50.788;4.940;2022-11-15T10:56:08;25.13;;;23.63;;
13609;SDS011;6876;50.788;4.940;2022-11-15T10:59:02;24.67;;;23.17;;
13609;SDS011;6876;50.788;4.940;2022-11-15T11:01:50;23.33;;;21.73;;
13609;SDS011;6876;50.788;4.940;2022-11-15T11:04:48;27.07;;;25.67;;
13609;SDS011;6876;50.788;4.940;2022-11-15T11:07:36;30.83;;;29.20;;
13609;SDS011;6876;50.788;4.940;2022-11-15T11:10:23;27.80;;;26.10;;
13609;SDS011;6876;50.788;4.940;2022-11-15T11:13:14;27.23;;;25.73;;
13609;SDS011;6876;50.788;4.940;2022-11-15T11:16:14;26.70;;;25.20;;
13609;SDS011;6876;50.788;4.940;2022-11-15T11:19:10;25.70;;;24.33;;
13609;SDS011;6876;50.788;4.940;2022-11-15T11:22:09;26.97;;;24.73;;
13609;SDS011;6876;50.788;4.940;2022-11-15T11:25:05;26.17;;;24.63;;
13609;SDS011;6876;50.788;4.940;2022-11-15T11:28:14;33.00;;;30.90;;
13609;SDS011;6876;50.788;4.940;2022-11-15T11:31:15;38.07;;;35.87;;
13609;SDS011;6876;50.788;4.940;2022-11-15T11:34:13;87.60;;;83.10;;
13609;SDS011;6876;50.788;4.940;2022-11-15T11:37:07;28.30;;;26.33;;
13609;SDS011;6876;50.788;4.940;2022-11-15T11:40:01;27.50;;;25.80;;
13609;SDS011;6876;50.788;4.940;2022-11-15T11:43:03;25.90;;;24.33;;
13609;SDS011;6876;50.788;4.940;2022-11-15T11:46:00;27.10;;;25.67;;
13609;SDS011;6876;50.788;4.940;2022-11-15T11:49:01;28.53;;;27.03;;
13609;SDS011;6876;50.788;4.940;2022-11-15T11:51:55;29.87;;;28.27;;
13609;SDS011;6876;50.788;4.940;2022-11-15T11:54:52;24.00;;;22.60;;
13609;SDS011;6876;50.788;4.940;2022-11-15T11:57:46;26.03;;;24.53;;
13609;SDS011;6876;50.788;4.940;2022-11-15T12:00:38;25.07;;;23.63;;
13609;SDS011;6876;50.788;4.940;2022-11-15T12:03:30;26.40;;;24.97;;
13609;SDS011;6876;50.788;4.940;2022-11-15T12:06:30;28.57;;;26.67;;
13609;SDS011;6876;50.788;4.940;2022-11-15T12:09:21;26.80;;;25.20;;
13609;SDS011;6876;50.788;4.940;2022-11-15T12:12:15;26.43;;;24.93;;
13609;SDS011;6876;50.788;4.940;2022-11-15T12:15:11;26.67;;;25.07;;
13609;SDS011;6876;50.788;4.940;2022-11-15T12:18:01;27.63;;;26.13;;
13609;SDS011;6876;50.788;4.940;2022-11-15T12:20:50;28.60;;;27.20;;
13609;SDS011;6876;50.788;4.940;2022-11-15T12:23:43;29.90;;;27.90;;
13609;SDS011;6876;50.788;4.940;2022-11-15T12:26:36;29.93;;;28.30;;
13609;SDS011;6876;50.788;4.940;2022-11-15T12:29:28;30.87;;;28.97;;
13609;SDS011;6876;50.788;4.940;2022-11-15T12:32:24;28.63;;;27.03;;
13609;SDS011;6876;50.788;4.940;2022-11-15T12:35:20;27.47;;;26.07;;
13609;SDS011;6876;50.788;4.940;2022-11-15T12:38:10;28.07;;;26.63;;
13609;SDS011;6876;50.788;4.940;2022-11-15T12:41:16;29.37;;;27.57;;
13609;SDS011;6876;50.788;4.940;2022-11-15T12:44:04;28.97;;;27.00;;
13609;SDS011;6876;50.788;4.940;2022-11-15T12:47:01;31.67;;;29.97;;
13609;SDS011;6876;50.788;4.940;2022-11-15T12:49:50;27.77;;;26.37;;
13609;SDS011;6876;50.788;4.940;2022-11-15T12:52:37;29.67;;;27.97;;
13609;SDS011;6876;50.788;4.940;2022-11-15T12:56:22;28.30;;;26.83;;
13609;SDS011;6876;50.788;4.940;2022-11-15T12:59:10;28.93;;;27.53;;
13609;SDS011;6876;50.788;4.940;2022-11-15T13:02:17;29.27;;;27.67;;
13609;SDS011;6876;50.788;4.940;2022-11-15T13:05:26;30.17;;;28.47;;
13609;SDS011;6876;50.788;4.940;2022-11-15T13:08:48;28.83;;;27.03;;
13609;SDS011;6876;50.788;4.940;2022-11-15T13:11:51;30.37;;;28.37;;
13609;SDS011;6876;50.788;4.940;2022-11-15T13:14:48;29.73;;;28.10;;
13609;SDS011;6876;50.788;4.940;2022-11-15T13:17:37;34.03;;;31.70;;
13609;SDS011;6876;50.788;4.940;2022-11-15T13:20:26;30.67;;;29.07;;
13609;SDS011;6876;50.788;4.940;2022-11-15T13:23:14;31.10;;;29.50;;
13609;SDS011;6876;50.788;4.940;2022-11-15T13:26:10;31.07;;;29.47;;
13609;SDS011;6876;50.788;4.940;2022-11-15T13:29:00;30.97;;;29.37;;
13609;SDS011;6876;50.788;4.940;2022-11-15T13:31:48;32.27;;;30.47;;
13609;SDS011;6876;50.788;4.940;2022-11-15T13:34:35;32.37;;;30.67;;
13609;SDS011;6876;50.788;4.940;2022-11-15T13:37:27;30.23;;;28.70;;
13609;SDS011;6876;50.788;4.940;2022-11-15T13:40:21;32.00;;;30.17;;
13609;SDS011;6876;50.788;4.940;2022-11-15T13:43:15;31.60;;;30.00;;
13609;SDS011;6876;50.788;4.940;2022-11-15T13:46:17;31.57;;;29.87;;
13609;SDS011;6876;50.788;4.940;2022-11-15T13:49:05;32.77;;;31.17;;
13609;SDS011;6876;50.788;4.940;2022-11-15T13:51:56;32.37;;;30.57;;
13609;SDS011;6876;50.788;4.940;2022-11-15T13:54:45;34.30;;;32.50;;
13609;SDS011;6876;50.788;4.940;2022-11-15T13:57:36;34.67;;;32.43;;
13609;SDS011;6876;50.788;4.940;2022-11-15T14:00:35;32.13;;;30.53;;
13609;SDS011;6876;50.788;4.940;2022-11-15T14:03:27;32.97;;;31.27;;
13609;SDS011;6876;50.788;4.940;2022-11-15T14:06:17;35.07;;;32.97;;
13609;SDS011;6876;50.788;4.940;2022-11-15T14:09:22;37.83;;;35.23;;
13609;SDS011;6876;50.788;4.940;2022-11-15T14:15:25;32.37;;;30.67;;
13609;SDS011;6876;50.788;4.940;2022-11-15T14:21:30;39.13;;;37.23;;
13609;SDS011;6876;50.788;4.940;2022-11-15T14:24:18;34.13;;;32.37;;
13609;SDS011;6876;50.788;4.940;2022-11-15T14:27:17;33.07;;;31.30;;
13609;SDS011;6876;50.788;4.940;2022-11-15T14:30:11;31.47;;;29.77;;
13609;SDS011;6876;50.788;4.940;2022-11-15T14:33:00;31.83;;;30.23;;
13609;SDS011;6876;50.788;4.940;2022-11-15T14:35:49;33.63;;;31.87;;
13609;SDS011;6876;50.788;4.940;2022-11-15T14:38:37;32.40;;;30.67;;
13609;SDS011;6876;50.788;4.940;2022-11-15T14:41:25;32.07;;;30.53;;
13609;SDS011;6876;50.788;4.940;2022-11-15T14:44:12;32.77;;;31.03;;
13609;SDS011;6876;50.788;4.940;2022-11-15T14:47:03;31.10;;;29.43;;
13609;SDS011;6876;50.788;4.940;2022-11-15T14:49:51;34.07;;;32.43;;
13609;SDS011;6876;50.788;4.940;2022-11-15T14:52:39;37.53;;;35.50;;
13609;SDS011;6876;50.788;4.940;2022-11-15T14:55:28;34.90;;;33.03;;
13609;SDS011;6876;50.788;4.940;2022-11-15T14:58:18;37.23;;;35.03;;
13609;SDS011;6876;50.788;4.940;2022-11-15T15:01:09;38.17;;;36.23;;
13609;SDS011;6876;50.788;4.940;2022-11-15T15:03:59;37.37;;;35.37;;
13609;SDS011;6876;50.788;4.940;2022-11-15T15:06:47;39.37;;;37.37;;
13609;SDS011;6876;50.788;4.940;2022-11-15T15:09:35;40.17;;;38.07;;
13609;SDS011;6876;50.788;4.940;2022-11-15T15:12:23;42.77;;;40.47;;
13609;SDS011;6876;50.788;4.940;2022-11-15T15:15:14;42.17;;;40.03;;
13609;SDS011;6876;50.788;4.940;2022-11-15T15:18:03;42.10;;;39.97;;
13609;SDS011;6876;50.788;4.940;2022-11-15T15:20:54;45.80;;;43.53;;
13609;SDS011;6876;50.788;4.940;2022-11-15T15:23:45;47.97;;;45.60;;
13609;SDS011;6876;50.788;4.940;2022-11-15T15:26:33;51.27;;;48.73;;
13609;SDS011;6876;50.788;4.940;2022-11-15T15:29:21;54.87;;;52.13;;
13609;SDS011;6876;50.788;4.940;2022-11-15T15:32:10;59.03;;;56.10;;
13609;SDS011;6876;50.788;4.940;2022-11-15T15:34:58;59.53;;;56.67;;
13609;SDS011;6876;50.788;4.940;2022-11-15T15:37:46;59.70;;;56.40;;
13609;SDS011;6876;50.788;4.940;2022-11-15T15:40:35;63.10;;;59.87;;
13609;SDS011;6876;50.788;4.940;2022-11-15T15:43:23;61.23;;;58.20;;
13609;SDS011;6876;50.788;4.940;2022-11-15T15:46:11;61.30;;;58.27;;
13609;SDS011;6876;50.788;4.940;2022-11-15T15:49:00;57.03;;;54.03;;
13609;SDS011;6876;50.788;4.940;2022-11-15T15:51:47;47.17;;;44.87;;
13609;SDS011;6876;50.788;4.940;2022-11-15T15:54:35;49.97;;;47.47;;
13609;SDS011;6876;50.788;4.940;2022-11-15T15:57:22;49.83;;;47.33;;
13609;SDS011;6876;50.788;4.940;2022-11-15T16:00:11;55.27;;;52.37;;
13609;SDS011;6876;50.788;4.940;2022-11-15T16:03:00;61.93;;;58.60;;
13609;SDS011;6876;50.788;4.940;2022-11-15T16:05:47;82.13;;;77.97;;
13609;SDS011;6876;50.788;4.940;2022-11-15T16:08:36;105.53;;;100.33;;
13609;SDS011;6876;50.788;4.940;2022-11-15T16:11:23;99.20;;;94.30;;
13609;SDS011;6876;50.788;4.940;2022-11-15T16:14:11;107.67;;;102.53;;
13609;SDS011;6876;50.788;4.940;2022-11-15T16:16:59;103.23;;;98.27;;
13609;SDS011;6876;50.788;4.940;2022-11-15T16:19:47;154.50;;;147.13;;
13609;SDS011;6876;50.788;4.940;2022-11-15T16:22:34;138.33;;;131.30;;
13609;SDS011;6876;50.788;4.940;2022-11-15T16:25:21;126.63;;;120.43;;
13609;SDS011;6876;50.788;4.940;2022-11-15T16:28:14;127.50;;;121.13;;
13609;SDS011;6876;50.788;4.940;2022-11-15T16:31:04;158.70;;;151.17;;
13609;SDS011;6876;50.788;4.940;2022-11-15T16:33:55;192.47;;;182.97;;
13609;SDS011;6876;50.788;4.940;2022-11-15T16:36:42;182.90;;;173.93;;
13609;SDS011;6876;50.788;4.940;2022-11-15T16:39:30;150.90;;;143.57;;
13609;SDS011;6876;50.788;4.940;2022-11-15T16:42:17;135.23;;;128.30;;
13609;SDS011;6876;50.788;4.940;2022-11-15T16:45:05;110.63;;;105.10;;
13609;SDS011;6876;50.788;4.940;2022-11-15T16:47:55;92.90;;;88.10;;
13609;SDS011;6876;50.788;4.940;2022-11-15T16:50:46;170.13;;;161.20;;
13609;SDS011;6876;50.788;4.940;2022-11-15T16:53:35;90.60;;;85.90;;
13609;SDS011;6876;50.788;4.940;2022-11-15T16:56:23;89.40;;;84.93;;